createdAt,value
2019-03-18T00:00:31.436Z,0.00
2019-03-18T00:01:31.505Z,0.00
2019-03-18T00:02:31.375Z,0.00
2019-03-18T00:03:31.362Z,0.00
2019-03-18T00:04:31.382Z,0.00
2019-03-18T00:05:31.337Z,0.00
2019-03-18T00:06:31.312Z,0.00
2019-03-18T00:07:31.384Z,0.00
2019-03-18T00:08:31.313Z,0.00
2019-03-18T00:09:31.327Z,0.00
2019-03-18T00:10:31.382Z,0.00
2019-03-18T00:11:31.254Z,0.00
2019-03-18T00:12:31.251Z,0.00
2019-03-18T00:13:31.271Z,0.00
2019-03-18T00:14:31.230Z,0.00
2019-03-18T00:15:31.204Z,0.00
2019-03-18T00:16:31.196Z,0.00
2019-03-18T00:17:31.301Z,0.00
2019-03-18T00:18:31.198Z,0.00
2019-03-18T00:19:31.179Z,0.00
2019-03-18T00:20:31.160Z,0.00
2019-03-18T00:21:31.177Z,0.00
2019-03-18T00:22:31.141Z,0.00
2019-03-18T00:23:31.229Z,0.00
2019-03-18T00:24:31.108Z,0.00
2019-03-18T00:25:31.099Z,0.00
2019-03-18T00:26:31.106Z,0.00
2019-03-18T00:27:31.071Z,0.00
2019-03-18T00:28:31.061Z,0.00
2019-03-18T00:29:31.068Z,0.00
2019-03-18T00:30:31.058Z,0.00
2019-03-18T00:31:31.047Z,0.00
2019-03-18T00:32:31.054Z,0.00
2019-03-18T00:33:31.049Z,0.00
2019-03-18T00:34:31.023Z,0.00
2019-03-18T00:35:30.981Z,0.00
2019-03-18T00:36:30.975Z,0.00
2019-03-18T00:37:30.974Z,0.00
2019-03-18T00:38:30.944Z,0.00
2019-03-18T00:39:30.953Z,0.00
2019-03-18T00:40:30.932Z,0.00
2019-03-18T00:41:30.935Z,0.00
2019-03-18T00:42:30.913Z,0.00
2019-03-18T00:43:30.916Z,0.00
2019-03-18T00:44:30.892Z,0.00
2019-03-18T00:45:30.896Z,0.00
2019-03-18T00:46:30.866Z,0.00
2019-03-18T00:47:30.860Z,0.00
2019-03-18T00:48:30.875Z,0.00
2019-03-18T00:49:30.852Z,0.00
2019-03-18T00:50:30.812Z,0.00
2019-03-18T00:51:30.806Z,0.00
2019-03-18T00:52:30.793Z,0.00
2019-03-18T00:53:30.808Z,0.00
2019-03-18T00:54:30.777Z,0.00
2019-03-18T00:55:30.794Z,0.00
2019-03-18T00:56:30.747Z,0.00
2019-03-18T00:57:30.752Z,0.00
2019-03-18T00:58:30.729Z,0.00
2019-03-18T00:59:30.744Z,0.00
2019-03-18T01:00:30.728Z,0.00
2019-03-18T01:01:30.689Z,0.00
2019-03-18T01:02:30.680Z,0.00
2019-03-18T01:03:30.674Z,0.00
2019-03-18T01:04:30.703Z,0.00
2019-03-18T01:05:30.662Z,0.00
2019-03-18T01:06:30.631Z,0.00
2019-03-18T01:07:30.628Z,0.00
2019-03-18T01:08:30.611Z,0.00
2019-03-18T01:09:30.793Z,0.00
2019-03-18T01:10:30.620Z,0.00
2019-03-18T01:11:30.638Z,0.00
2019-03-18T01:12:30.571Z,0.00
2019-03-18T01:13:30.559Z,0.00
2019-03-18T01:14:39.232Z,0.00
2019-03-18T01:15:38.253Z,0.00
2019-03-18T01:16:30.537Z,0.00
2019-03-18T01:17:30.525Z,0.00
2019-03-18T01:18:30.540Z,0.00
2019-03-18T01:19:30.499Z,0.00
2019-03-18T01:20:30.535Z,0.00
2019-03-18T01:21:30.491Z,0.00
2019-03-18T01:22:30.507Z,0.00
2019-03-18T01:23:30.472Z,0.00
2019-03-18T01:24:30.442Z,0.00
2019-03-18T01:25:30.420Z,0.00
2019-03-18T01:26:30.437Z,0.00
2019-03-18T01:27:30.430Z,0.00
2019-03-18T01:28:30.395Z,0.00
2019-03-18T01:29:30.417Z,0.00
2019-03-18T01:30:30.374Z,0.00
2019-03-18T01:31:30.369Z,0.00
2019-03-18T01:32:30.347Z,0.00
2019-03-18T01:33:30.343Z,0.00
2019-03-18T01:34:30.344Z,0.00
2019-03-18T01:35:30.354Z,0.00
2019-03-18T01:36:30.306Z,0.00
2019-03-18T01:37:30.286Z,0.00
2019-03-18T01:38:30.282Z,0.00
2019-03-18T01:39:30.284Z,0.00
2019-03-18T01:40:30.248Z,0.00
2019-03-18T01:41:30.239Z,0.00
2019-03-18T01:42:30.255Z,0.00
2019-03-18T01:43:30.223Z,0.00
2019-03-18T01:44:30.348Z,0.00
2019-03-18T01:45:40.119Z,0.00
2019-03-18T01:46:31.183Z,0.00
2019-03-18T01:47:30.170Z,0.00
2019-03-18T01:48:30.747Z,0.00
2019-03-18T01:49:30.147Z,0.00
2019-03-18T01:50:30.170Z,0.00
2019-03-18T01:51:30.159Z,0.00
2019-03-18T01:52:30.119Z,0.00
2019-03-18T01:53:37.675Z,0.00
2019-03-18T01:56:55.899Z,0.00
2019-03-18T01:59:05.243Z,0.00
2019-03-18T02:00:05.249Z,0.00
2019-03-18T02:01:12.758Z,0.00
2019-03-18T02:02:05.246Z,0.00
2019-03-18T02:03:05.254Z,0.00
2019-03-18T02:04:05.178Z,0.00
2019-03-18T02:05:05.219Z,0.00
2019-03-18T02:06:05.162Z,0.00
2019-03-18T02:07:05.182Z,0.00
2019-03-18T02:08:05.151Z,0.00
2019-03-18T02:09:05.121Z,0.00
2019-03-18T02:10:05.139Z,0.00
2019-03-18T02:11:05.112Z,0.00
2019-03-18T02:12:05.117Z,0.00
2019-03-18T02:13:05.080Z,0.00
2019-03-18T02:14:05.070Z,0.00
2019-03-18T02:15:05.065Z,0.00
2019-03-18T02:16:05.089Z,0.00
2019-03-18T02:17:05.042Z,0.00
2019-03-18T02:18:05.051Z,0.00
2019-03-18T02:19:05.060Z,0.00
2019-03-18T02:20:05.071Z,0.00
2019-03-18T02:21:04.998Z,0.00
2019-03-18T02:22:04.987Z,0.00
2019-03-18T02:23:04.972Z,0.00
2019-03-18T02:24:04.962Z,0.00
2019-03-18T02:25:04.943Z,0.00
2019-03-18T02:26:04.942Z,0.00
2019-03-18T02:27:04.941Z,0.00
2019-03-18T02:28:04.931Z,0.00
2019-03-18T02:29:04.921Z,0.00
2019-03-18T02:30:04.886Z,0.00
2019-03-18T02:31:13.915Z,0.00
2019-03-18T02:32:04.872Z,0.00
2019-03-18T02:33:04.878Z,0.00
2019-03-18T02:34:04.907Z,0.00
2019-03-18T02:35:04.869Z,0.00
2019-03-18T02:36:04.869Z,0.00
2019-03-18T02:37:04.813Z,0.00
2019-03-18T02:38:04.806Z,0.00
2019-03-18T02:39:04.800Z,0.00
2019-03-18T02:40:04.798Z,0.00
2019-03-18T02:41:04.814Z,0.00
2019-03-18T02:42:04.767Z,0.00
2019-03-18T02:43:04.781Z,0.00
2019-03-18T02:44:04.740Z,0.00
2019-03-18T02:45:04.724Z,0.00
2019-03-18T02:46:10.353Z,0.00
2019-03-18T02:47:05.732Z,0.00
2019-03-18T02:48:04.736Z,0.00
2019-03-18T02:49:04.715Z,0.00
2019-03-18T02:50:04.667Z,0.00
2019-03-18T02:51:04.673Z,0.00
2019-03-18T02:52:04.657Z,0.00
2019-03-18T02:53:04.646Z,0.00
2019-03-18T02:54:04.615Z,0.00
2019-03-18T02:55:04.627Z,0.00
2019-03-18T02:56:04.611Z,0.00
2019-03-18T02:57:04.604Z,0.00
2019-03-18T02:58:04.573Z,0.00
2019-03-18T02:59:04.563Z,0.00
2019-03-18T03:00:04.546Z,0.00
2019-03-18T03:01:04.559Z,0.00
2019-03-18T03:02:04.545Z,0.00
2019-03-18T03:03:04.553Z,0.00
2019-03-18T03:04:04.509Z,0.00
2019-03-18T03:05:04.496Z,0.00
2019-03-18T03:06:04.487Z,0.00
2019-03-18T03:07:04.488Z,0.00
2019-03-18T03:08:04.516Z,0.00
2019-03-18T03:09:04.459Z,0.00
2019-03-18T03:10:04.451Z,0.00
2019-03-18T03:11:04.455Z,0.00
2019-03-18T03:12:04.421Z,0.00
2019-03-18T03:13:04.415Z,0.00
2019-03-18T03:14:04.431Z,0.00
2019-03-18T03:15:04.651Z,0.00
2019-03-18T03:16:04.393Z,0.00
2019-03-18T03:17:04.387Z,0.00
2019-03-18T03:18:04.346Z,0.00
2019-03-18T03:19:04.349Z,0.00
2019-03-18T03:20:04.374Z,0.00
2019-03-18T03:21:04.376Z,0.00
2019-03-18T03:22:04.304Z,0.00
2019-03-18T03:23:04.290Z,0.00
2019-03-18T03:24:04.302Z,0.00
2019-03-18T03:25:04.293Z,0.00
2019-03-18T03:26:04.296Z,0.00
2019-03-18T03:27:04.248Z,0.00
2019-03-18T03:28:04.240Z,0.00
2019-03-18T03:29:04.224Z,0.00
2019-03-18T03:30:04.237Z,0.00
2019-03-18T03:31:04.331Z,0.00
2019-03-18T03:32:04.188Z,0.00
2019-03-18T03:33:04.278Z,0.00
2019-03-18T03:34:04.178Z,0.00
2019-03-18T03:35:04.173Z,0.00
2019-03-18T03:36:04.173Z,0.00
2019-03-18T03:37:04.173Z,0.00
2019-03-18T03:38:11.373Z,0.00
2019-03-18T03:39:04.119Z,0.00
2019-03-18T03:40:04.123Z,0.00
2019-03-18T03:41:04.115Z,0.00
2019-03-18T03:42:04.099Z,0.00
2019-03-18T03:43:04.113Z,0.00
2019-03-18T03:44:04.059Z,0.00
2019-03-18T03:45:04.063Z,0.00
2019-03-18T03:46:04.059Z,0.00
2019-03-18T03:47:04.032Z,0.00
2019-03-18T03:48:04.066Z,0.00
2019-03-18T03:49:03.997Z,0.00
2019-03-18T03:50:04.001Z,0.00
2019-03-18T03:51:03.988Z,0.00
2019-03-18T03:52:04.019Z,0.00
2019-03-18T03:53:03.969Z,0.00
2019-03-18T03:54:03.985Z,0.00
2019-03-18T03:55:03.976Z,0.00
2019-03-18T03:56:03.984Z,0.00
2019-03-18T03:57:03.910Z,0.00
2019-03-18T03:58:03.924Z,0.00
2019-03-18T03:59:03.910Z,0.00
2019-03-18T04:00:03.880Z,0.00
2019-03-18T04:01:03.913Z,0.00
2019-03-18T04:02:03.902Z,0.00
2019-03-18T04:03:03.852Z,0.00
2019-03-18T04:04:03.835Z,0.00
2019-03-18T04:05:03.841Z,0.00
2019-03-18T04:06:03.847Z,0.00
2019-03-18T04:07:03.854Z,0.00
2019-03-18T04:08:03.811Z,0.00
2019-03-18T04:09:03.819Z,0.00
2019-03-18T04:10:03.789Z,0.00
2019-03-18T04:11:08.000Z,0.00
2019-03-18T04:12:03.754Z,0.00
2019-03-18T04:13:03.735Z,0.00
2019-03-18T04:14:03.720Z,0.00
2019-03-18T04:15:03.728Z,0.00
2019-03-18T04:16:03.728Z,0.00
2019-03-18T04:17:12.279Z,0.00
2019-03-18T04:18:12.262Z,0.00
2019-03-18T04:21:25.344Z,0.00
2019-03-18T04:22:25.308Z,0.00
2019-03-18T04:23:33.902Z,0.00
2019-03-18T04:24:25.415Z,0.00
2019-03-18T04:25:25.331Z,0.00
2019-03-18T04:26:25.278Z,0.00
2019-03-18T04:27:25.261Z,0.00
2019-03-18T04:28:25.238Z,0.00
2019-03-18T04:29:25.292Z,0.00
2019-03-18T04:30:25.260Z,0.00
2019-03-18T04:31:25.321Z,0.00
2019-03-18T04:32:25.293Z,0.00
2019-03-18T04:33:25.182Z,0.00
2019-03-18T04:34:25.201Z,0.00
2019-03-18T04:35:25.471Z,0.00
2019-03-18T04:36:25.156Z,0.00
2019-03-18T04:37:25.156Z,0.00
2019-03-18T04:38:25.125Z,0.00
2019-03-18T04:39:25.115Z,0.00
2019-03-18T04:40:25.117Z,0.00
2019-03-18T04:41:25.130Z,0.00
2019-03-18T04:42:25.091Z,0.00
2019-03-18T04:43:25.103Z,0.00
2019-03-18T04:44:25.056Z,0.00
2019-03-18T04:45:25.061Z,0.00
2019-03-18T04:46:25.035Z,0.00
2019-03-18T04:47:25.040Z,0.00
2019-03-18T04:48:25.038Z,0.00
2019-03-18T04:49:25.048Z,0.00
2019-03-18T04:50:25.000Z,4.00
2019-03-18T04:51:25.025Z,4.00
2019-03-18T04:52:24.985Z,4.00
2019-03-18T04:53:24.962Z,0.00
2019-03-18T04:54:24.958Z,4.00
2019-03-18T04:55:24.972Z,4.00
2019-03-18T04:56:24.933Z,8.00
2019-03-18T04:57:24.935Z,4.00
2019-03-18T04:58:24.949Z,8.00
2019-03-18T04:59:24.893Z,8.00
2019-03-18T05:00:24.910Z,8.00
2019-03-18T05:01:25.130Z,12.00
2019-03-18T05:02:24.915Z,12.00
2019-03-18T05:03:24.853Z,20.00
2019-03-18T05:04:24.844Z,20.00
2019-03-18T05:05:24.861Z,20.00
2019-03-18T05:06:24.854Z,24.00
2019-03-18T05:07:24.823Z,24.00
2019-03-18T05:08:24.798Z,24.00
2019-03-18T05:09:24.781Z,24.00
2019-03-18T05:10:24.790Z,28.00
2019-03-18T05:11:24.769Z,36.00
2019-03-18T05:12:24.749Z,44.00
2019-03-18T05:13:26.568Z,52.00
2019-03-18T05:14:24.721Z,40.00
2019-03-18T05:15:24.749Z,36.00
2019-03-18T05:16:24.710Z,44.00
2019-03-18T05:17:26.760Z,56.00
2019-03-18T05:18:24.689Z,64.00
2019-03-18T05:19:24.722Z,68.00
2019-03-18T05:20:24.691Z,80.00
2019-03-18T05:21:24.698Z,92.00
2019-03-18T05:22:24.663Z,96.00
2019-03-18T05:23:24.675Z,84.00
2019-03-18T05:24:24.617Z,80.00
2019-03-18T05:25:24.637Z,88.00
2019-03-18T05:26:24.656Z,100.00
2019-03-18T05:27:24.745Z,100.00
2019-03-18T05:28:24.575Z,84.00
2019-03-18T05:29:24.709Z,104.00
2019-03-18T05:30:24.565Z,112.00
2019-03-18T05:31:24.731Z,160.00
2019-03-18T05:32:24.676Z,204.00
2019-03-18T05:33:24.542Z,204.00
2019-03-18T05:34:24.523Z,192.00
2019-03-18T05:35:24.671Z,192.00
2019-03-18T05:36:24.482Z,208.00
2019-03-18T05:37:25.417Z,248.00
2019-03-18T05:38:25.455Z,272.00
2019-03-18T05:39:24.463Z,316.00
2019-03-18T05:40:24.505Z,332.00
2019-03-18T05:41:24.592Z,372.00
2019-03-18T05:42:24.728Z,404.00
2019-03-18T05:43:24.427Z,324.00
2019-03-18T05:44:24.399Z,284.00
2019-03-18T05:45:24.450Z,272.00
2019-03-18T05:46:24.438Z,320.00
2019-03-18T05:47:24.660Z,240.00
2019-03-18T05:48:24.357Z,272.00
2019-03-18T05:49:24.421Z,304.00
2019-03-18T05:50:24.340Z,384.00
2019-03-18T05:51:25.089Z,516.00
2019-03-18T05:52:25.909Z,548.00
2019-03-18T05:53:24.816Z,448.00
2019-03-18T05:54:24.885Z,376.00
2019-03-18T05:55:26.002Z,436.00
2019-03-18T05:56:24.305Z,472.00
2019-03-18T05:57:26.060Z,520.00
2019-03-18T05:58:24.239Z,516.00
2019-03-18T05:59:24.241Z,608.00
2019-03-18T06:00:24.952Z,740.00
2019-03-18T06:01:24.247Z,840.00
2019-03-18T06:02:24.258Z,792.00
2019-03-18T06:03:24.229Z,776.00
2019-03-18T06:04:24.176Z,720.00
2019-03-18T06:05:24.254Z,724.00
2019-03-18T06:06:24.175Z,732.00
2019-03-18T06:07:24.193Z,708.00
2019-03-18T06:08:24.240Z,728.00
2019-03-18T06:09:24.179Z,836.00
2019-03-18T06:10:24.417Z,1056.00
2019-03-18T06:11:24.250Z,1136.00
2019-03-18T06:12:24.289Z,1072.00
2019-03-18T06:13:27.049Z,1152.00
2019-03-18T06:14:24.105Z,1172.00
2019-03-18T06:15:24.156Z,1356.00
2019-03-18T06:16:24.206Z,1052.00
2019-03-18T06:17:24.052Z,1068.00
2019-03-18T06:18:24.045Z,1256.00
2019-03-18T06:19:25.287Z,1252.00
2019-03-18T06:20:24.729Z,1288.00
2019-03-18T06:21:24.080Z,1356.00
2019-03-18T06:22:24.203Z,1200.00
2019-03-18T06:23:23.996Z,1492.00
2019-03-18T06:24:23.967Z,1268.00
2019-03-18T06:25:36.095Z,1132.00
2019-03-18T06:26:31.501Z,1228.00
2019-03-18T06:27:23.928Z,1512.00
2019-03-18T06:28:24.514Z,1648.00
2019-03-18T06:29:24.209Z,1856.00
2019-03-18T06:30:23.950Z,1628.00
2019-03-18T06:31:24.021Z,1476.00
2019-03-18T06:32:23.929Z,1696.00
2019-03-18T06:33:23.923Z,1536.00
2019-03-18T06:34:24.589Z,1668.00
2019-03-18T06:35:24.049Z,1656.00
2019-03-18T06:36:26.522Z,1760.00
2019-03-18T06:37:24.268Z,1732.00
2019-03-18T06:38:24.072Z,1872.00
2019-03-18T06:39:23.966Z,1740.00
2019-03-18T06:40:23.936Z,1756.00
2019-03-18T06:41:24.092Z,1436.00
2019-03-18T06:42:24.017Z,1720.00
2019-03-18T06:43:23.883Z,1868.00
2019-03-18T06:44:23.981Z,1748.00
2019-03-18T06:45:24.123Z,1448.00
2019-03-18T06:46:27.474Z,1184.00
2019-03-18T06:47:32.708Z,1184.00
2019-03-18T06:48:23.740Z,1088.00
2019-03-18T06:49:23.765Z,1464.00
2019-03-18T06:50:23.771Z,1636.00
2019-03-18T06:51:23.667Z,1648.00
2019-03-18T06:52:23.676Z,1428.00
2019-03-18T06:53:23.643Z,1372.00
2019-03-18T06:54:23.644Z,1572.00
2019-03-18T06:55:23.606Z,1580.00
2019-03-18T06:56:23.680Z,1596.00
2019-03-18T06:57:23.587Z,1528.00
2019-03-18T06:58:23.600Z,1264.00
2019-03-18T06:59:23.579Z,1296.00
2019-03-18T07:00:23.581Z,1264.00
2019-03-18T07:01:23.538Z,1536.00
2019-03-18T07:02:23.540Z,1564.00
2019-03-18T07:03:23.524Z,1668.00
2019-03-18T07:04:23.587Z,2108.00
2019-03-18T07:05:23.521Z,1988.00
2019-03-18T07:06:23.548Z,2220.00
2019-03-18T07:07:23.556Z,2588.00
2019-03-18T07:08:23.463Z,2548.00
2019-03-18T07:09:23.459Z,2532.00
2019-03-18T07:10:23.478Z,2616.00
2019-03-18T07:11:23.482Z,2708.00
2019-03-18T07:12:23.460Z,2656.00
2019-03-18T07:13:23.479Z,2704.00
2019-03-18T07:14:23.399Z,2676.00
2019-03-18T07:15:23.388Z,2412.00
2019-03-18T07:16:23.427Z,2728.00
2019-03-18T07:17:23.860Z,2888.00
2019-03-18T07:18:23.421Z,2276.00
2019-03-18T07:19:24.059Z,2220.00
2019-03-18T07:20:23.462Z,2580.00
2019-03-18T07:22:39.699Z,3568.00
2019-03-18T07:23:39.614Z,2536.00
2019-03-18T07:24:39.599Z,2272.00
2019-03-18T07:25:39.641Z,2640.00
2019-03-18T07:26:40.037Z,3244.00
2019-03-18T07:27:39.585Z,3616.00
2019-03-18T07:28:39.554Z,3444.00
2019-03-18T07:29:39.544Z,3640.00
2019-03-18T07:30:39.611Z,3612.00
2019-03-18T07:31:39.540Z,3564.00
2019-03-18T07:32:39.495Z,3532.00
2019-03-18T07:33:39.543Z,3592.00
2019-03-18T07:34:39.519Z,3488.00
2019-03-18T07:35:39.502Z,3412.00
2019-03-18T07:36:39.518Z,3384.00
2019-03-18T07:37:39.437Z,3588.00
2019-03-18T07:38:39.430Z,3724.00
2019-03-18T07:39:39.435Z,3928.00
2019-03-18T07:40:39.429Z,3892.00
2019-03-18T07:41:39.437Z,3732.00
2019-03-18T07:42:39.744Z,3688.00
2019-03-18T07:43:39.470Z,3920.00
2019-03-18T07:44:39.480Z,3828.00
2019-03-18T07:45:39.383Z,4196.00
2019-03-18T07:46:39.378Z,3992.00
2019-03-18T07:47:48.504Z,4020.00
2019-03-18T07:48:54.026Z,3928.00
2019-03-18T07:49:47.243Z,4228.00
2019-03-18T07:51:56.631Z,4232.00
2019-03-18T07:53:09.319Z,3520.00
2019-03-18T07:54:04.112Z,2700.00
2019-03-18T07:54:55.758Z,3680.00
2019-03-18T07:55:55.668Z,3280.00
2019-03-18T07:58:06.103Z,2604.00
2019-03-18T07:59:06.135Z,2908.00
2019-03-18T08:00:05.911Z,3052.00
2019-03-18T08:01:17.151Z,3184.00
2019-03-18T08:02:17.267Z,3252.00
2019-03-18T08:03:05.924Z,3904.00
2019-03-18T08:04:06.169Z,3852.00
2019-03-18T08:05:07.992Z,4064.00
2019-03-18T08:06:05.967Z,4660.00
2019-03-18T08:07:06.790Z,3476.00
2019-03-18T08:08:05.830Z,3264.00
2019-03-18T08:09:05.838Z,3196.00
2019-03-18T08:10:05.848Z,4124.00
2019-03-18T08:11:05.799Z,4264.00
2019-03-18T08:12:05.772Z,3608.00
2019-03-18T08:13:05.768Z,3980.00
2019-03-18T08:14:05.790Z,4304.00
2019-03-18T08:15:07.458Z,4048.00
2019-03-18T08:16:05.808Z,4152.00
2019-03-18T08:17:05.816Z,4232.00
2019-03-18T08:18:05.732Z,5332.00
2019-03-18T08:19:05.710Z,4724.00
2019-03-18T08:20:05.703Z,4480.00
2019-03-18T08:21:05.720Z,4432.00
2019-03-18T08:22:05.729Z,5000.00
2019-03-18T08:23:05.662Z,4876.00
2019-03-18T08:24:05.670Z,4680.00
2019-03-18T08:25:05.651Z,4980.00
2019-03-18T08:26:05.672Z,4624.00
2019-03-18T08:27:06.611Z,3440.00
2019-03-18T08:28:05.733Z,4688.00
2019-03-18T08:29:05.609Z,5308.00
2019-03-18T08:30:05.632Z,4528.00
2019-03-18T08:31:05.583Z,5128.00
2019-03-18T08:32:05.594Z,5300.00
2019-03-18T08:33:05.730Z,4704.00
2019-03-18T08:34:07.595Z,4072.00
2019-03-18T08:35:05.559Z,4404.00
2019-03-18T08:36:05.547Z,4824.00
2019-03-18T08:37:05.594Z,4920.00
2019-03-18T08:38:05.600Z,5104.00
2019-03-18T08:39:05.487Z,4864.00
2019-03-18T08:40:05.537Z,5352.00
2019-03-18T08:41:05.491Z,5372.00
2019-03-18T08:42:05.545Z,5804.00
2019-03-18T08:43:05.463Z,5796.00
2019-03-18T08:44:05.492Z,5836.00
2019-03-18T08:45:05.508Z,5956.00
2019-03-18T08:46:05.450Z,4804.00
2019-03-18T08:47:05.431Z,4504.00
2019-03-18T08:48:05.510Z,4684.00
2019-03-18T08:49:05.577Z,4084.00
2019-03-18T08:50:05.365Z,5092.00
2019-03-18T08:51:05.401Z,4160.00
2019-03-18T08:52:05.362Z,4212.00
2019-03-18T08:53:05.323Z,3044.00
2019-03-18T08:54:05.321Z,3652.00
2019-03-18T08:55:05.305Z,2820.00
2019-03-18T08:56:05.358Z,2972.00
2019-03-18T08:57:05.262Z,3080.00
2019-03-18T08:58:05.272Z,3436.00
2019-03-18T08:59:05.267Z,2524.00
2019-03-18T09:00:05.505Z,2228.00
2019-03-18T09:01:05.303Z,2328.00
2019-03-18T09:02:05.325Z,1884.00
2019-03-18T09:03:05.300Z,1508.00
2019-03-18T09:04:05.229Z,1460.00
2019-03-18T09:05:05.225Z,1632.00
2019-03-18T09:06:05.249Z,1996.00
2019-03-18T09:07:05.158Z,2412.00
2019-03-18T09:08:05.196Z,2092.00
2019-03-18T09:09:05.268Z,3220.00
2019-03-18T09:10:05.178Z,2936.00
2019-03-18T09:11:05.105Z,2676.00
2019-03-18T09:12:05.099Z,2196.00
2019-03-18T09:13:05.163Z,2268.00
2019-03-18T09:14:05.090Z,2160.00
2019-03-18T09:15:05.070Z,2408.00
2019-03-18T09:16:05.074Z,3100.00
2019-03-18T09:17:05.089Z,3860.00
2019-03-18T09:18:05.572Z,3376.00
2019-03-18T09:19:09.111Z,3084.00
2019-03-18T09:20:05.032Z,2852.00
2019-03-18T09:21:05.014Z,3096.00
2019-03-18T09:22:05.065Z,4352.00
2019-03-18T09:23:04.971Z,4092.00
2019-03-18T09:24:05.124Z,3352.00
2019-03-18T09:25:04.954Z,3048.00
2019-03-18T09:26:04.971Z,4004.00
2019-03-18T09:27:04.939Z,4360.00
2019-03-18T09:28:04.946Z,4048.00
2019-03-18T09:29:04.895Z,5852.00
2019-03-18T09:30:04.905Z,4040.00
2019-03-18T09:31:04.898Z,3728.00
2019-03-18T09:32:04.920Z,4124.00
2019-03-18T09:33:04.853Z,4368.00
2019-03-18T09:34:04.892Z,3368.00
2019-03-18T09:35:04.828Z,3336.00
2019-03-18T09:36:04.813Z,3572.00
2019-03-18T09:37:04.824Z,4216.00
2019-03-18T09:38:04.786Z,6100.00
2019-03-18T09:39:04.887Z,7448.00
2019-03-18T09:40:04.821Z,7180.00
2019-03-18T09:41:04.752Z,6656.00
2019-03-18T09:42:04.743Z,4852.00
2019-03-18T09:43:04.738Z,4284.00
2019-03-18T09:44:04.725Z,4484.00
2019-03-18T09:45:04.815Z,4236.00
2019-03-18T09:46:05.085Z,3104.00
2019-03-18T09:47:04.827Z,3184.00
2019-03-18T09:48:04.713Z,2764.00
2019-03-18T09:49:04.774Z,2552.00
2019-03-18T09:50:04.691Z,2348.00
2019-03-18T09:51:04.646Z,2660.00
2019-03-18T09:52:04.827Z,1960.00
2019-03-18T09:53:04.662Z,2288.00
2019-03-18T09:54:04.745Z,2692.00
2019-03-18T09:55:04.599Z,3384.00
2019-03-18T09:56:04.593Z,3896.00
2019-03-18T09:57:04.637Z,3892.00
2019-03-18T09:58:04.686Z,3688.00
2019-03-18T09:59:04.598Z,3504.00
2019-03-18T10:00:04.587Z,3360.00
2019-03-18T10:01:04.585Z,2344.00
2019-03-18T10:02:04.948Z,2144.00
2019-03-18T10:03:05.469Z,3296.00
2019-03-18T10:04:05.238Z,4056.00
2019-03-18T10:05:04.495Z,3220.00
2019-03-18T10:06:04.468Z,3380.00
2019-03-18T10:07:04.496Z,4024.00
2019-03-18T10:08:04.454Z,3488.00
2019-03-18T10:09:04.443Z,3012.00
2019-03-18T10:10:04.446Z,2436.00
2019-03-18T10:11:04.506Z,3752.00
2019-03-18T10:12:04.405Z,6116.00
2019-03-18T10:13:04.465Z,6164.00
2019-03-18T10:14:04.455Z,6764.00
2019-03-18T10:15:04.496Z,5996.00
2019-03-18T10:16:05.060Z,4252.00
2019-03-18T10:17:09.414Z,3988.00
2019-03-18T10:18:05.466Z,3912.00
2019-03-18T10:19:04.332Z,3864.00
2019-03-18T10:20:08.121Z,3436.00
2019-03-18T10:21:04.439Z,2396.00
2019-03-18T10:22:04.313Z,2352.00
2019-03-18T10:23:04.325Z,3132.00
2019-03-18T10:24:04.326Z,3568.00
2019-03-18T10:25:04.578Z,2660.00
2019-03-18T10:26:04.273Z,4312.00
2019-03-18T10:27:04.291Z,3552.00
2019-03-18T10:28:05.483Z,4764.00
2019-03-18T10:29:04.864Z,5264.00
2019-03-18T10:30:04.270Z,5856.00
2019-03-18T10:31:04.268Z,4304.00
2019-03-18T10:32:04.280Z,3800.00
2019-03-18T10:33:04.281Z,3280.00
2019-03-18T10:34:04.190Z,3936.00
2019-03-18T10:35:04.191Z,5188.00
2019-03-18T10:36:04.189Z,5580.00
2019-03-18T10:37:05.119Z,5816.00
2019-03-18T10:38:04.209Z,5444.00
2019-03-18T10:39:04.118Z,5352.00
2019-03-18T10:40:04.131Z,8324.00
2019-03-18T10:41:04.070Z,8416.00
2019-03-18T10:42:04.132Z,8032.00
2019-03-18T10:43:04.073Z,7296.00
2019-03-18T10:44:04.046Z,6116.00
2019-03-18T10:45:04.062Z,6780.00
2019-03-18T10:46:04.077Z,8248.00
2019-03-18T10:47:04.020Z,7944.00
2019-03-18T10:48:04.013Z,7472.00
2019-03-18T10:49:03.974Z,7632.00
2019-03-18T10:50:03.985Z,6156.00
2019-03-18T10:51:03.995Z,5376.00
2019-03-18T10:52:03.980Z,5744.00
2019-03-18T10:53:03.986Z,6908.00
2019-03-18T10:54:04.017Z,6540.00
2019-03-18T10:55:03.959Z,5408.00
2019-03-18T10:56:08.123Z,5216.00
2019-03-18T10:57:03.922Z,4240.00
2019-03-18T10:58:03.895Z,4004.00
2019-03-18T10:59:03.879Z,4392.00
2019-03-18T11:00:03.950Z,4920.00
2019-03-18T11:01:03.856Z,5720.00
2019-03-18T11:02:03.854Z,4612.00
2019-03-18T11:03:03.813Z,3956.00
2019-03-18T11:04:03.810Z,4240.00
2019-03-18T11:05:03.821Z,4408.00
2019-03-18T11:06:03.835Z,3672.00
2019-03-18T11:07:03.783Z,3908.00
2019-03-18T11:08:03.758Z,3032.00
2019-03-18T11:09:03.777Z,3204.00
2019-03-18T11:10:03.786Z,3720.00
2019-03-18T11:11:03.756Z,5624.00
2019-03-18T11:12:03.727Z,6628.00
2019-03-18T11:13:03.719Z,7748.00
2019-03-18T11:14:03.745Z,6576.00
2019-03-18T11:15:03.702Z,6260.00
2019-03-18T11:16:04.868Z,4676.00
2019-03-18T11:17:04.638Z,2528.00
2019-03-18T11:18:04.682Z,2988.00
2019-03-18T11:19:03.686Z,3540.00
2019-03-18T11:20:03.667Z,2732.00
2019-03-18T11:21:03.669Z,2404.00
2019-03-18T11:22:03.621Z,2400.00
2019-03-18T11:23:03.626Z,2432.00
2019-03-18T11:24:03.599Z,2544.00
2019-03-18T11:25:03.606Z,2612.00
2019-03-18T11:26:03.551Z,2484.00
2019-03-18T11:27:03.610Z,2492.00
2019-03-18T11:28:03.527Z,2552.00
2019-03-18T11:29:05.744Z,2604.00
2019-03-18T11:30:03.548Z,2784.00
2019-03-18T11:31:03.603Z,3016.00
2019-03-18T11:32:03.564Z,3508.00
2019-03-18T11:33:03.552Z,4612.00
2019-03-18T11:34:03.503Z,6148.00
2019-03-18T11:35:03.469Z,7308.00
2019-03-18T11:36:03.471Z,7136.00
2019-03-18T11:37:03.480Z,9352.00
2019-03-18T11:38:03.410Z,9208.00
2019-03-18T11:39:03.518Z,8548.00
2019-03-18T11:40:04.051Z,8480.00
2019-03-18T11:41:06.415Z,8388.00
2019-03-18T11:42:11.803Z,8120.00
2019-03-18T11:43:03.744Z,8352.00
2019-03-18T11:44:03.372Z,8108.00
2019-03-18T11:45:03.351Z,7232.00
2019-03-18T11:46:03.345Z,7188.00
2019-03-18T11:47:03.323Z,6704.00
2019-03-18T11:48:03.297Z,5708.00
2019-03-18T11:49:03.375Z,5748.00
2019-03-18T11:50:10.806Z,5552.00
2019-03-18T11:51:04.303Z,5408.00
2019-03-18T11:52:03.283Z,4772.00
2019-03-18T11:53:13.769Z,6184.00
2019-03-18T11:54:04.239Z,6972.00
2019-03-18T11:55:03.235Z,7216.00
2019-03-18T11:56:03.271Z,6588.00
2019-03-18T11:57:03.228Z,7072.00
2019-03-18T11:58:03.262Z,6576.00
2019-03-18T11:59:03.236Z,4728.00
2019-03-18T12:00:03.177Z,3184.00
2019-03-18T12:01:03.192Z,3036.00
2019-03-18T12:02:03.148Z,4408.00
2019-03-18T12:03:03.170Z,5312.00
2019-03-18T12:04:03.172Z,4928.00
2019-03-18T12:05:03.111Z,4196.00
2019-03-18T12:06:03.147Z,4160.00
2019-03-18T12:07:03.091Z,5044.00
2019-03-18T12:08:03.089Z,7136.00
2019-03-18T12:09:03.073Z,8088.00
2019-03-18T12:10:03.109Z,6708.00
2019-03-18T12:11:05.563Z,5436.00
2019-03-18T12:12:05.075Z,4064.00
2019-03-18T12:13:08.418Z,4432.00
2019-03-18T12:14:03.042Z,4976.00
2019-03-18T12:15:03.057Z,5280.00
2019-03-18T12:16:03.032Z,4492.00
2019-03-18T12:17:03.038Z,3876.00
2019-03-18T12:18:03.103Z,3704.00
2019-03-18T12:19:03.561Z,3888.00
2019-03-18T12:20:03.174Z,3868.00
2019-03-18T12:21:03.534Z,3944.00
2019-03-18T12:22:04.178Z,4284.00
2019-03-18T12:23:04.159Z,5708.00
2019-03-18T12:24:02.950Z,6704.00
2019-03-18T12:25:02.904Z,6448.00
2019-03-18T12:26:02.931Z,5676.00
2019-03-18T12:27:02.989Z,5076.00
2019-03-18T12:28:05.205Z,3908.00
2019-03-18T12:29:02.860Z,2504.00
2019-03-18T12:30:02.846Z,2004.00
2019-03-18T12:31:02.843Z,1820.00
2019-03-18T12:32:02.883Z,1556.00
2019-03-18T12:33:02.913Z,1272.00
2019-03-18T12:34:02.874Z,1100.00
2019-03-18T12:35:02.801Z,976.00
2019-03-18T12:36:03.119Z,964.00
2019-03-18T12:37:02.853Z,1204.00
2019-03-18T12:38:02.757Z,1572.00
2019-03-18T12:39:02.746Z,2388.00
2019-03-18T12:40:02.796Z,3408.00
2019-03-18T12:41:02.723Z,4056.00
2019-03-18T12:42:02.732Z,3296.00
2019-03-18T12:43:02.735Z,3024.00
2019-03-18T12:44:02.715Z,2488.00
2019-03-18T12:45:02.651Z,2880.00